createdAt,value
2022-09-01T00:00:50.446Z,14.57
2022-09-01T00:01:50.745Z,14.62
2022-09-01T00:02:47.961Z,14.70
2022-09-01T00:03:48.724Z,14.73
2022-09-01T00:04:46.470Z,14.72
2022-09-01T00:05:46.326Z,14.44
2022-09-01T00:06:43.865Z,14.54
2022-09-01T00:07:40.578Z,14.43
2022-09-01T00:08:37.260Z,14.53
2022-09-01T00:09:34.544Z,14.52
2022-09-01T00:10:31.464Z,14.53
2022-09-01T00:11:29.444Z,14.63
2022-09-01T00:12:26.602Z,14.75
2022-09-01T00:13:23.248Z,14.82
2022-09-01T00:14:29.914Z,14.80
2022-09-01T00:15:27.720Z,14.82
2022-09-01T00:16:24.887Z,14.88
2022-09-01T00:17:22.283Z,14.77
2022-09-01T00:18:19.818Z,14.74
2022-09-01T00:19:16.815Z,14.89
2022-09-01T00:20:18.223Z,14.88
2022-09-01T00:21:28.004Z,14.77
2022-09-01T00:22:24.682Z,14.85
2022-09-01T00:23:21.382Z,14.62
2022-09-01T00:24:19.819Z,14.69
2022-09-01T00:25:18.894Z,14.48
2022-09-01T00:26:15.679Z,14.51
2022-09-01T00:27:12.337Z,14.36
2022-09-01T00:28:09.633Z,14.47
2022-09-01T00:29:07.174Z,14.48
2022-09-01T00:30:04.448Z,14.44
2022-09-01T00:31:01.663Z,14.39
2022-09-01T00:31:58.499Z,14.32
2022-09-01T00:32:55.111Z,14.27
2022-09-01T00:33:51.842Z,14.33
2022-09-01T00:34:48.532Z,14.25
2022-09-01T00:35:45.397Z,14.20
2022-09-01T00:36:42.478Z,14.14
2022-09-01T00:37:39.129Z,14.21
2022-09-01T00:38:35.968Z,14.22
2022-09-01T00:39:32.791Z,14.10
2022-09-01T00:40:29.559Z,14.07
2022-09-01T00:41:30.140Z,14.05
2022-09-01T00:42:27.145Z,14.10
2022-09-01T00:43:41.891Z,14.06
2022-09-01T00:44:39.302Z,14.01
2022-09-01T00:45:36.049Z,14.06
2022-09-01T00:46:49.543Z,14.07
2022-09-01T00:47:46.969Z,13.98
2022-09-01T00:48:43.932Z,13.96
2022-09-01T00:49:45.089Z,13.97
2022-09-01T00:50:42.191Z,13.92
2022-09-01T00:51:42.547Z,13.90
2022-09-01T00:52:44.962Z,13.93
2022-09-01T00:53:44.012Z,13.88
2022-09-01T00:54:45.873Z,13.87
2022-09-01T00:55:42.568Z,13.80
2022-09-01T00:56:41.042Z,13.74
2022-09-01T00:57:44.214Z,13.79
2022-09-01T00:58:41.451Z,13.80
2022-09-01T00:59:46.040Z,13.85
2022-09-01T01:00:44.719Z,13.87
2022-09-01T01:01:41.488Z,13.94
2022-09-01T01:02:40.603Z,14.05
2022-09-01T01:03:39.356Z,13.91
2022-09-01T01:04:36.088Z,13.90
2022-09-01T01:05:37.079Z,13.84
2022-09-01T01:06:33.843Z,13.76
2022-09-01T01:07:30.877Z,13.79
2022-09-01T01:08:34.336Z,13.88
2022-09-01T01:09:35.851Z,13.98
2022-09-01T01:10:35.970Z,14.04
2022-09-01T01:11:32.736Z,14.09
2022-09-01T01:12:30.911Z,14.07
2022-09-01T01:13:28.840Z,14.10
2022-09-01T01:14:27.789Z,14.16
2022-09-01T01:15:24.501Z,14.17
2022-09-01T01:16:23.032Z,14.17
2022-09-01T01:17:21.733Z,14.28
2022-09-01T01:18:22.985Z,14.25
2022-09-01T01:19:43.016Z,14.23
2022-09-01T01:20:59.206Z,14.11
2022-09-01T01:22:15.433Z,14.17
2022-09-01T01:23:28.892Z,14.14
2022-09-01T01:24:26.580Z,14.20
2022-09-01T01:25:24.020Z,14.22
2022-09-01T01:26:20.864Z,14.13
2022-09-01T01:27:21.891Z,14.24
2022-09-01T01:28:26.885Z,14.15
2022-09-01T01:29:24.182Z,14.16
2022-09-01T01:30:21.043Z,14.31
2022-09-01T01:31:23.024Z,14.36
2022-09-01T01:32:20.732Z,14.30
2022-09-01T01:33:17.573Z,14.06
2022-09-01T01:34:17.848Z,13.99
2022-09-01T01:35:17.457Z,14.01
2022-09-01T01:36:36.386Z,13.92
2022-09-01T01:37:36.382Z,14.11
2022-09-01T01:38:35.401Z,13.99
2022-09-01T01:39:32.644Z,14.00
2022-09-01T01:40:30.109Z,13.96
2022-09-01T01:41:27.023Z,14.01
2022-09-01T01:42:25.205Z,14.02
2022-09-01T01:43:24.038Z,14.13
2022-09-01T01:44:27.964Z,14.32
2022-09-01T01:45:25.422Z,14.15
2022-09-01T01:46:22.795Z,14.16
2022-09-01T01:47:20.492Z,14.08
2022-09-01T01:48:24.683Z,14.07
2022-09-01T01:49:25.565Z,14.02
2022-09-01T01:50:25.277Z,14.05
2022-09-01T01:51:26.858Z,14.29
2022-09-01T01:52:26.256Z,14.26
2022-09-01T01:53:23.833Z,14.03
2022-09-01T01:54:20.549Z,13.97
2022-09-01T01:55:19.420Z,14.08
2022-09-01T01:56:18.526Z,14.10
2022-09-01T01:57:18.337Z,14.02
2022-09-01T01:58:15.843Z,14.02
2022-09-01T01:59:14.901Z,14.06
2022-09-01T02:00:13.032Z,14.18
2022-09-01T02:01:11.900Z,14.35
2022-09-01T02:02:10.491Z,14.40
2022-09-01T02:03:07.562Z,14.19
2022-09-01T02:04:05.766Z,14.21
2022-09-01T02:05:02.563Z,14.07
2022-09-01T02:06:04.766Z,14.01
2022-09-01T02:07:01.514Z,13.87
2022-09-01T02:08:04.052Z,13.78
2022-09-01T02:09:01.632Z,13.73
2022-09-01T02:09:58.384Z,13.67
2022-09-01T02:10:57.884Z,13.64
2022-09-01T02:11:57.172Z,13.53
2022-09-01T02:12:54.048Z,13.55
2022-09-01T02:13:54.470Z,13.50
2022-09-01T02:14:53.153Z,13.36
2022-09-01T02:15:53.977Z,13.60
2022-09-01T02:16:50.778Z,13.55
2022-09-01T02:17:48.946Z,13.49
2022-09-01T02:18:49.952Z,13.60
2022-09-01T02:19:47.525Z,13.62
2022-09-01T02:20:49.488Z,13.62
2022-09-01T02:21:55.936Z,13.72
2022-09-01T02:22:55.460Z,13.88
2022-09-01T02:24:02.143Z,13.79
2022-09-01T02:25:01.007Z,13.77
2022-09-01T02:26:18.165Z,13.89
2022-09-01T02:27:15.820Z,13.92
2022-09-01T02:28:16.158Z,14.02
2022-09-01T02:29:21.210Z,14.11
2022-09-01T02:30:17.976Z,14.05
2022-09-01T02:31:14.726Z,14.02
2022-09-01T02:32:11.785Z,14.06
2022-09-01T02:33:09.260Z,14.00
2022-09-01T02:34:10.728Z,13.92
2022-09-01T02:35:10.128Z,13.97
2022-09-01T02:36:12.808Z,13.95
2022-09-01T02:37:09.416Z,14.06
2022-09-01T02:38:07.025Z,14.15
2022-09-01T02:39:03.972Z,14.11
2022-09-01T02:40:00.667Z,14.15
2022-09-01T02:40:58.517Z,14.16
2022-09-01T02:41:56.125Z,14.13
2022-09-01T02:42:55.439Z,14.19
2022-09-01T02:43:54.275Z,14.24
2022-09-01T02:44:50.955Z,14.17
2022-09-01T02:45:52.948Z,14.11
2022-09-01T02:46:50.583Z,14.14
2022-09-01T02:47:48.592Z,14.02
2022-09-01T02:48:46.387Z,13.96
2022-09-01T02:49:43.134Z,13.92
2022-09-01T02:50:41.562Z,13.88
2022-09-01T02:51:38.615Z,13.80
2022-09-01T02:52:38.208Z,13.69
2022-09-01T02:53:36.046Z,13.46
2022-09-01T02:54:33.261Z,13.43
2022-09-01T02:55:29.889Z,13.35
2022-09-01T02:56:27.580Z,13.31
2022-09-01T02:57:24.591Z,13.31
2022-09-01T02:58:22.894Z,13.34
2022-09-01T02:59:24.720Z,13.37
2022-09-01T03:00:22.921Z,13.41
2022-09-01T03:01:38.064Z,13.51
2022-09-01T03:02:36.021Z,13.48
2022-09-01T03:03:35.832Z,13.50
2022-09-01T03:04:35.514Z,13.43
2022-09-01T03:05:34.634Z,13.45
2022-09-01T03:06:34.631Z,13.47
2022-09-01T03:07:32.063Z,13.39
2022-09-01T03:08:28.704Z,13.54
2022-09-01T03:09:25.384Z,13.52
2022-09-01T03:10:27.173Z,13.52
2022-09-01T03:11:24.697Z,13.49
2022-09-01T03:12:21.393Z,13.44
2022-09-01T03:13:21.994Z,13.43
2022-09-01T03:14:19.086Z,13.30
2022-09-01T03:15:15.756Z,13.44
2022-09-01T03:16:13.000Z,13.40
2022-09-01T03:17:09.783Z,13.39
2022-09-01T03:18:08.548Z,13.37
2022-09-01T03:19:11.153Z,13.57
2022-09-01T03:20:07.899Z,13.66
2022-09-01T03:21:06.231Z,13.60
2022-09-01T03:22:02.971Z,13.68
2022-09-01T03:23:01.337Z,13.72
2022-09-01T03:23:59.461Z,13.63
2022-09-01T03:24:57.709Z,13.58
2022-09-01T03:25:54.716Z,13.38
2022-09-01T03:26:51.749Z,13.54
2022-09-01T03:27:48.384Z,13.44
2022-09-01T03:28:46.264Z,13.56
2022-09-01T03:29:42.949Z,13.40
2022-09-01T03:30:46.041Z,13.29
2022-09-01T03:31:42.995Z,13.29
2022-09-01T03:32:39.893Z,13.27
2022-09-01T03:33:36.921Z,13.44
2022-09-01T03:34:34.557Z,13.37
2022-09-01T03:35:32.095Z,13.29
2022-09-01T03:36:31.039Z,13.36
2022-09-01T03:37:27.745Z,13.41
2022-09-01T03:38:25.606Z,13.33
2022-09-01T03:39:22.384Z,13.29
2022-09-01T03:40:19.403Z,13.29
2022-09-01T03:41:18.644Z,13.18
2022-09-01T03:42:25.975Z,13.35
2022-09-01T03:43:27.223Z,13.38
2022-09-01T03:44:35.422Z,13.46
2022-09-01T03:45:38.513Z,13.42
2022-09-01T03:46:37.181Z,13.43
2022-09-01T03:47:33.926Z,13.43
2022-09-01T03:48:31.757Z,13.51
2022-09-01T03:49:28.651Z,13.49
2022-09-01T03:50:25.605Z,13.47
2022-09-01T03:51:24.058Z,13.45
2022-09-01T03:52:21.080Z,13.48
2022-09-01T03:53:20.781Z,13.48
2022-09-01T03:54:17.850Z,13.53
2022-09-01T03:55:18.420Z,13.58
2022-09-01T03:56:15.927Z,13.56
2022-09-01T03:57:13.889Z,13.65
2022-09-01T03:58:14.794Z,13.61
2022-09-01T03:59:17.295Z,13.50
2022-09-01T04:00:21.060Z,13.55
2022-09-01T04:01:19.279Z,13.58
2022-09-01T04:02:15.992Z,13.56
2022-09-01T04:03:13.920Z,13.50
2022-09-01T04:04:14.959Z,13.48
2022-09-01T04:05:11.690Z,13.45
2022-09-01T04:06:10.195Z,13.41
2022-09-01T04:07:07.490Z,13.33
2022-09-01T04:08:07.966Z,13.37
2022-09-01T04:09:04.762Z,13.35
2022-09-01T04:10:01.473Z,13.42
2022-09-01T04:11:02.877Z,13.40
2022-09-01T04:11:59.841Z,13.48
2022-09-01T04:12:59.146Z,13.53
2022-09-01T04:13:55.758Z,13.53
2022-09-01T04:14:52.367Z,13.55
2022-09-01T04:15:50.053Z,13.53
2022-09-01T04:17:05.458Z,13.57
2022-09-01T04:18:09.743Z,13.58
2022-09-01T04:19:16.010Z,13.67
2022-09-01T04:20:13.102Z,13.62
2022-09-01T04:21:10.577Z,13.60
2022-09-01T04:22:08.111Z,13.58
2022-09-01T04:23:10.866Z,13.54
2022-09-01T04:24:09.088Z,13.49
2022-09-01T04:25:06.777Z,13.58
2022-09-01T04:26:10.046Z,13.53
2022-09-01T04:27:07.681Z,13.62
2022-09-01T04:28:13.037Z,13.65
2022-09-01T04:29:11.756Z,13.72
2022-09-01T04:30:11.833Z,13.71
2022-09-01T04:31:15.013Z,13.80
2022-09-01T04:32:15.857Z,13.81
2022-09-01T04:33:13.163Z,13.74
2022-09-01T04:34:16.327Z,14.13
2022-09-01T04:35:17.210Z,14.41
2022-09-01T04:36:19.665Z,14.47
2022-09-01T04:37:18.876Z,14.40
2022-09-01T04:38:15.902Z,14.39
2022-09-01T04:39:13.464Z,14.41
2022-09-01T04:40:10.711Z,14.37
2022-09-01T04:41:09.517Z,14.40
2022-09-01T04:42:09.080Z,14.44
2022-09-01T04:43:09.228Z,14.36
2022-09-01T04:44:07.198Z,14.38
2022-09-01T04:45:10.029Z,14.37
2022-09-01T04:46:07.566Z,14.41
2022-09-01T04:47:07.106Z,14.46
2022-09-01T04:48:05.535Z,14.51
2022-09-01T04:49:13.158Z,14.58
2022-09-01T04:50:14.821Z,14.49
2022-09-01T04:51:12.758Z,14.56
2022-09-01T04:52:09.491Z,14.60
2022-09-01T04:53:06.847Z,14.60
2022-09-01T04:54:03.748Z,14.68
2022-09-01T04:55:00.690Z,14.67
2022-09-01T04:56:04.580Z,14.70
2022-09-01T04:57:01.249Z,14.75
2022-09-01T04:58:08.338Z,14.78
2022-09-01T04:59:08.174Z,14.85
2022-09-01T05:00:05.387Z,14.82
2022-09-01T05:01:06.563Z,14.88
2022-09-01T05:02:03.273Z,14.87
2022-09-01T05:03:06.161Z,14.89
2022-09-01T05:04:04.080Z,14.88
2022-09-01T05:05:03.542Z,14.85
2022-09-01T05:06:02.567Z,14.88
2022-09-01T05:07:01.209Z,14.96
2022-09-01T05:07:58.012Z,14.94
2022-09-01T05:08:57.879Z,14.94
2022-09-01T05:09:58.071Z,14.89
2022-09-01T05:10:57.466Z,14.98
2022-09-01T05:11:54.111Z,15.13
2022-09-01T05:12:52.408Z,15.18
2022-09-01T05:13:49.983Z,15.28
2022-09-01T05:14:48.623Z,15.35
2022-09-01T05:15:47.164Z,15.41
2022-09-01T05:16:45.081Z,15.43
2022-09-01T05:17:42.051Z,15.44
2022-09-01T05:18:47.771Z,15.56
2022-09-01T05:19:47.821Z,15.59
2022-09-01T05:20:44.609Z,15.58
2022-09-01T05:21:45.707Z,15.61
2022-09-01T05:22:42.423Z,15.64
2022-09-01T05:23:42.640Z,15.62
2022-09-01T05:24:42.120Z,15.83
2022-09-01T05:25:42.008Z,15.82
2022-09-01T05:26:40.525Z,15.82
2022-09-01T05:27:39.773Z,15.78
2022-09-01T05:28:36.477Z,15.90
2022-09-01T05:29:34.328Z,15.89
2022-09-01T05:30:31.070Z,16.03
2022-09-01T05:31:29.727Z,16.12
2022-09-01T05:32:27.573Z,16.08
2022-09-01T05:33:24.734Z,16.30
2022-09-01T05:34:29.821Z,16.38
2022-09-01T05:35:32.403Z,16.39
2022-09-01T05:36:33.897Z,16.41
2022-09-01T05:37:30.555Z,16.32
2022-09-01T05:38:27.189Z,16.32
2022-09-01T05:39:25.072Z,16.49
2022-09-01T05:40:22.094Z,16.54
2022-09-01T05:41:20.408Z,16.51
2022-09-01T05:42:17.725Z,16.43
2022-09-01T05:43:14.907Z,16.18
2022-09-01T05:44:14.179Z,16.28
2022-09-01T05:45:14.384Z,16.15
2022-09-01T05:46:11.071Z,16.18
2022-09-01T05:47:09.711Z,16.24
2022-09-01T05:48:12.645Z,16.33
2022-09-01T05:49:14.010Z,16.28
2022-09-01T05:50:14.621Z,16.16
2022-09-01T05:51:40.209Z,16.38
2022-09-01T05:52:34.385Z,16.50
2022-09-01T05:53:31.062Z,16.60
2022-09-01T05:54:29.265Z,16.56
2022-09-01T05:55:27.741Z,16.75
2022-09-01T05:56:27.228Z,16.85
2022-09-01T05:57:34.340Z,16.89
2022-09-01T05:59:22.450Z,17.03
2022-09-01T05:59:53.899Z,17.17
2022-09-01T06:00:52.125Z,16.98
2022-09-01T06:01:50.478Z,16.75
2022-09-01T06:02:47.428Z,16.60
2022-09-01T06:03:44.774Z,16.32
2022-09-01T06:04:42.190Z,16.47
2022-09-01T06:05:39.860Z,16.53
2022-09-01T06:07:07.186Z,16.67
2022-09-01T06:08:07.216Z,16.69
2022-09-01T06:09:06.966Z,16.73
2022-09-01T06:10:04.454Z,16.72
2022-09-01T06:11:01.490Z,16.76
2022-09-01T06:11:58.098Z,16.37
2022-09-01T06:12:54.847Z,16.56
2022-09-01T06:13:56.930Z,16.56
2022-09-01T06:14:56.676Z,16.48
2022-09-01T06:15:58.348Z,16.52
2022-09-01T06:16:55.013Z,16.55
2022-09-01T06:17:52.509Z,16.37
2022-09-01T06:18:50.662Z,16.66
2022-09-01T06:19:58.647Z,16.77
2022-09-01T06:20:55.809Z,16.89
2022-09-01T06:21:53.458Z,17.13
2022-09-01T06:22:52.677Z,17.26
2022-09-01T06:23:54.146Z,17.24
2022-09-01T06:24:56.645Z,17.25
2022-09-01T06:25:59.918Z,17.41
2022-09-01T06:26:56.656Z,17.38
2022-09-01T06:27:54.194Z,17.46
2022-09-01T06:28:55.158Z,17.31
2022-09-01T06:29:55.329Z,17.39
2022-09-01T06:30:53.740Z,17.47
2022-09-01T06:31:52.905Z,17.26
2022-09-01T06:32:49.793Z,17.44
2022-09-01T06:33:48.716Z,17.53
2022-09-01T06:34:47.774Z,17.70
2022-09-01T06:35:47.217Z,17.79
2022-09-01T06:36:45.844Z,17.56
2022-09-01T06:37:44.032Z,17.34
2022-09-01T06:38:41.318Z,17.13
2022-09-01T06:39:38.401Z,17.37
2022-09-01T06:40:39.882Z,17.16
2022-09-01T06:41:38.911Z,17.34
2022-09-01T06:42:35.562Z,17.48
2022-09-01T06:43:33.546Z,17.53
2022-09-01T06:44:32.137Z,17.35
2022-09-01T06:45:28.817Z,17.52
2022-09-01T06:46:28.230Z,17.48
2022-09-01T06:47:24.881Z,17.35
2022-09-01T06:48:23.640Z,17.41
2022-09-01T06:49:24.695Z,17.30
2022-09-01T06:51:40.073Z,17.49
2022-09-01T06:53:59.667Z,17.74
2022-09-01T06:54:57.936Z,18.06
2022-09-01T06:55:56.312Z,17.80
2022-09-01T06:56:53.592Z,17.59
2022-09-01T06:58:09.534Z,17.81
2022-09-01T06:59:13.006Z,17.66
2022-09-01T07:00:20.278Z,17.54
2022-09-01T07:01:19.840Z,17.57
2022-09-01T07:02:18.711Z,17.37
2022-09-01T07:03:16.689Z,17.72
2022-09-01T07:04:18.903Z,17.83
2022-09-01T07:08:12.394Z,18.26
2022-09-01T07:09:47.083Z,18.51
2022-09-01T07:10:27.275Z,18.54
2022-09-01T07:14:22.054Z,18.74
2022-09-01T07:16:51.869Z,18.40
2022-09-01T07:17:52.443Z,18.29
2022-09-01T07:18:58.371Z,18.65
2022-09-01T07:20:25.271Z,18.09
2022-09-01T07:21:40.887Z,17.93
2022-09-01T07:23:03.227Z,18.26
2022-09-01T07:24:13.194Z,18.20
2022-09-01T07:25:12.842Z,18.11
2022-09-01T07:26:11.828Z,17.78
2022-09-01T07:27:10.742Z,17.81
2022-09-01T07:28:08.659Z,18.20
2022-09-01T07:29:07.203Z,18.24
2022-09-01T07:30:04.986Z,18.45
2022-09-01T07:33:44.258Z,18.01
2022-09-01T07:34:41.377Z,18.06
2022-09-01T07:36:24.956Z,18.38
2022-09-01T07:38:03.566Z,18.24
2022-09-01T07:39:52.166Z,18.25
2022-09-01T07:43:32.598Z,18.44
2022-09-01T07:44:30.832Z,18.18
2022-09-01T07:45:29.046Z,18.05
2022-09-01T07:46:41.311Z,18.53
2022-09-01T07:47:54.153Z,18.71
2022-09-01T07:49:28.882Z,18.91
2022-09-01T07:51:36.544Z,18.90
2022-09-01T07:52:43.233Z,19.10
2022-09-01T07:53:40.089Z,19.19
2022-09-01T07:54:37.474Z,19.44
2022-09-01T07:55:34.891Z,19.57
2022-09-01T07:56:34.192Z,19.46
2022-09-01T07:57:32.994Z,19.62
2022-09-01T07:58:33.657Z,19.49
2022-09-01T07:59:31.303Z,19.67
2022-09-01T08:00:31.169Z,19.57
2022-09-01T08:01:28.855Z,20.00
2022-09-01T08:02:28.077Z,20.00
2022-09-01T08:03:25.632Z,20.10
2022-09-01T08:04:23.133Z,20.13
2022-09-01T08:05:26.362Z,20.21
2022-09-01T08:06:28.014Z,20.16
2022-09-01T08:07:24.996Z,20.02
2022-09-01T08:08:25.001Z,20.18
2022-09-01T08:09:35.135Z,19.78
2022-09-01T08:10:36.873Z,19.86
2022-09-01T08:12:01.027Z,20.05
2022-09-01T08:12:57.691Z,20.33
2022-09-01T08:13:59.055Z,20.32
2022-09-01T08:16:19.533Z,20.05
2022-09-01T08:17:18.075Z,20.42
2022-09-01T08:18:47.980Z,20.20
2022-09-01T08:19:47.100Z,20.35
2022-09-01T08:20:48.307Z,20.55
2022-09-01T08:21:45.120Z,20.40
2022-09-01T08:22:41.819Z,20.54
2022-09-01T08:23:39.085Z,20.69
2022-09-01T08:24:35.712Z,20.47
2022-09-01T08:25:34.383Z,20.81
2022-09-01T08:26:31.023Z,20.91
2022-09-01T08:27:27.723Z,21.18
2022-09-01T08:28:27.465Z,20.97
2022-09-01T08:29:24.229Z,21.12
2022-09-01T08:30:20.917Z,21.04
2022-09-01T08:31:19.334Z,21.13
2022-09-01T08:32:17.235Z,21.14
2022-09-01T08:33:14.743Z,20.97
2022-09-01T08:34:12.668Z,21.01
2022-09-01T08:35:11.523Z,21.40
2022-09-01T08:36:09.684Z,21.06
2022-09-01T08:37:06.941Z,21.15
2022-09-01T08:38:03.560Z,21.09
2022-09-01T08:39:00.231Z,20.96
2022-09-01T08:39:57.030Z,21.34
2022-09-01T08:40:59.193Z,21.33
2022-09-01T08:42:08.851Z,21.98
2022-09-01T08:43:18.826Z,21.85
2022-09-01T08:45:08.308Z,21.83
2022-09-01T08:46:19.719Z,22.15
2022-09-01T08:47:28.740Z,22.25
2022-09-01T08:49:23.641Z,22.32
2022-09-01T08:49:54.611Z,22.27
2022-09-01T08:51:08.467Z,22.40
2022-09-01T08:52:35.009Z,21.72
2022-09-01T08:53:41.142Z,21.52
2022-09-01T08:54:52.180Z,22.00
2022-09-01T08:55:54.972Z,22.15
2022-09-01T08:56:56.165Z,22.27
2022-09-01T08:57:59.127Z,22.02
2022-09-01T08:58:56.718Z,22.00
2022-09-01T09:13:16.817Z,22.50
2022-09-01T09:14:34.879Z,22.66
2022-09-01T09:15:45.037Z,22.66
2022-09-01T09:16:45.320Z,23.03
2022-09-01T09:17:52.221Z,23.53
2022-09-01T09:18:57.848Z,23.43
2022-09-01T09:19:54.723Z,23.50
2022-09-01T09:20:52.572Z,23.58
2022-09-01T09:21:51.765Z,23.71
2022-09-01T09:22:49.048Z,23.98
2022-09-01T09:23:48.662Z,24.28
2022-09-01T09:25:06.803Z,23.50
2022-09-01T09:26:03.715Z,23.42
2022-09-01T09:27:00.520Z,23.42
2022-09-01T09:28:00.830Z,23.75
2022-09-01T09:28:57.865Z,23.45
2022-09-01T09:29:56.744Z,23.59
2022-09-01T09:31:28.668Z,23.71
2022-09-01T09:33:19.933Z,23.22
2022-09-01T09:34:01.754Z,23.21
2022-09-01T09:35:36.722Z,23.52
2022-09-01T09:36:36.139Z,23.54
2022-09-01T09:37:32.853Z,23.41
2022-09-01T09:38:30.422Z,23.67
2022-09-01T09:39:27.107Z,24.03
2022-09-01T09:40:27.185Z,24.07
2022-09-01T09:41:27.108Z,24.05
2022-09-01T09:42:33.400Z,24.30
2022-09-01T09:43:44.543Z,24.08
2022-09-01T09:44:51.233Z,23.62
2022-09-01T09:45:48.422Z,23.69
2022-09-01T09:46:48.852Z,23.82
2022-09-01T09:47:47.192Z,24.09
2022-09-01T09:48:43.870Z,24.27
2022-09-01T09:49:44.214Z,24.56
2022-09-01T09:50:44.107Z,24.66
2022-09-01T09:51:44.726Z,24.47
2022-09-01T09:52:41.549Z,24.41
2022-09-01T09:53:38.241Z,24.38
2022-09-01T09:54:37.380Z,24.68
2022-09-01T09:55:34.278Z,24.85
2022-09-01T09:56:31.541Z,24.88
2022-09-01T09:57:31.433Z,25.06
2022-09-01T09:58:42.904Z,24.89
2022-09-01T10:00:00.655Z,24.87
2022-09-01T10:01:07.294Z,24.69
2022-09-01T10:02:36.098Z,24.20
2022-09-01T10:03:50.435Z,24.38
2022-09-01T10:04:47.214Z,24.33
2022-09-01T10:05:47.933Z,24.22
2022-09-01T10:06:47.923Z,24.23
2022-09-01T10:07:44.820Z,24.43
2022-09-01T10:08:48.008Z,24.50
2022-09-01T10:09:44.840Z,24.74
2022-09-01T10:10:56.394Z,24.67
2022-09-01T10:11:57.488Z,25.05
2022-09-01T10:12:55.755Z,25.15
2022-09-01T10:13:54.085Z,25.00
2022-09-01T10:15:12.406Z,24.69
2022-09-01T10:16:23.318Z,24.38
2022-09-01T10:17:28.731Z,24.74
2022-09-01T10:18:40.615Z,24.77
2022-09-01T10:19:42.069Z,24.98
2022-09-01T10:20:41.666Z,25.28
2022-09-01T10:21:41.875Z,25.40
2022-09-01T10:22:39.786Z,25.45
2022-09-01T10:23:38.810Z,25.28
2022-09-01T10:24:39.097Z,25.49
2022-09-01T10:25:42.642Z,25.19
2022-09-01T10:26:41.699Z,25.55
2022-09-01T10:27:42.189Z,25.40
2022-09-01T10:28:52.980Z,25.80
2022-09-01T10:31:20.236Z,25.54
2022-09-01T10:32:35.099Z,25.98
2022-09-01T10:33:36.978Z,26.28
2022-09-01T10:34:37.380Z,26.12
2022-09-01T10:35:41.451Z,25.76
2022-09-01T10:36:38.569Z,25.83
2022-09-01T10:37:35.636Z,25.82
2022-09-01T10:38:32.428Z,25.97
2022-09-01T10:39:31.131Z,25.58
2022-09-01T10:40:31.661Z,25.63
2022-09-01T10:42:00.165Z,26.01
2022-09-01T10:43:18.937Z,26.24
2022-09-01T10:44:21.859Z,26.45
2022-09-01T10:45:38.203Z,26.51
2022-09-01T10:46:40.713Z,26.04
2022-09-01T10:47:40.292Z,26.22
2022-09-01T10:48:48.415Z,26.62
2022-09-01T10:49:51.616Z,26.94
2022-09-01T10:50:53.634Z,27.16
2022-09-01T10:51:55.113Z,27.21
2022-09-01T10:52:54.894Z,26.87
2022-09-01T10:54:01.824Z,26.91
2022-09-01T10:55:02.993Z,26.91
2022-09-01T10:56:20.007Z,26.13
2022-09-01T10:57:49.498Z,25.74
2022-09-01T10:59:43.295Z,25.82
2022-09-01T11:02:35.898Z,26.19
2022-09-01T11:03:41.037Z,26.66
2022-09-01T11:04:47.256Z,26.67
2022-09-01T11:06:11.432Z,26.29
2022-09-01T11:08:00.188Z,26.09
2022-09-01T11:09:04.568Z,26.89
2022-09-01T11:10:32.417Z,26.25
2022-09-01T11:11:47.409Z,26.31
2022-09-01T11:13:01.644Z,26.13
2022-09-01T11:13:59.193Z,26.35
2022-09-01T11:15:23.007Z,26.68
2022-09-01T11:16:48.119Z,26.69
2022-09-01T11:17:46.130Z,26.04
2022-09-01T11:18:43.579Z,26.36
2022-09-01T11:20:06.824Z,26.56
2022-09-01T11:21:34.002Z,26.86
2022-09-01T11:22:33.412Z,26.52
2022-09-01T11:23:31.487Z,26.77
2022-09-01T11:24:58.021Z,27.27
2022-09-01T11:27:48.787Z,26.99
2022-09-01T11:28:45.738Z,27.47
2022-09-01T11:29:58.857Z,27.11
2022-09-01T11:31:08.663Z,27.11
2022-09-01T11:32:06.330Z,26.81
2022-09-01T11:33:22.632Z,27.55
2022-09-01T11:34:23.395Z,27.83
2022-09-01T11:35:23.237Z,27.24
2022-09-01T11:36:35.359Z,26.20
2022-09-01T11:37:33.469Z,26.72
2022-09-01T11:38:43.671Z,26.82
2022-09-01T11:39:49.285Z,26.67
2022-09-01T11:40:55.697Z,27.16
2022-09-01T11:41:59.674Z,27.07
2022-09-01T11:43:02.210Z,27.26
2022-09-01T11:44:02.572Z,27.23
2022-09-01T11:45:07.411Z,27.09
2022-09-01T11:46:24.926Z,27.44
2022-09-01T11:47:46.417Z,27.42
2022-09-01T11:48:51.934Z,27.39
2022-09-01T11:50:29.327Z,27.37
2022-09-01T11:51:26.294Z,27.99
2022-09-01T11:52:26.086Z,27.90
2022-09-01T11:53:24.278Z,27.95
2022-09-01T11:54:21.057Z,27.54
2022-09-01T11:55:30.130Z,27.72
2022-09-01T11:56:28.741Z,27.70
2022-09-01T11:57:25.420Z,27.68
2022-09-01T11:58:27.872Z,27.95
2022-09-01T11:59:31.704Z,27.96
2022-09-01T12:00:32.829Z,27.67
2022-09-01T12:01:40.305Z,27.42
2022-09-01T12:02:45.727Z,27.29
2022-09-01T12:03:43.113Z,27.90
2022-09-01T12:04:41.160Z,27.66
2022-09-01T12:05:40.995Z,27.76
2022-09-01T12:06:37.649Z,27.29
2022-09-01T12:07:39.516Z,27.45
2022-09-01T12:08:41.794Z,27.89
2022-09-01T12:09:48.123Z,27.70
2022-09-01T12:10:46.979Z,27.26
2022-09-01T12:11:43.605Z,27.71
2022-09-01T12:12:40.508Z,27.94
2022-09-01T12:13:38.548Z,27.80
2022-09-01T12:15:02.126Z,28.01
2022-09-01T12:16:18.417Z,27.95
2022-09-01T12:17:20.538Z,28.05
2022-09-01T12:18:23.512Z,27.80
2022-09-01T12:19:25.941Z,27.88
2022-09-01T12:20:28.881Z,28.19
2022-09-01T12:21:43.902Z,28.29
2022-09-01T12:22:43.011Z,28.29
2022-09-01T12:23:43.426Z,28.83
2022-09-01T12:24:46.613Z,28.13
2022-09-01T12:25:44.608Z,28.22
2022-09-01T12:26:42.171Z,28.11
2022-09-01T12:27:38.968Z,28.15
2022-09-01T12:28:38.228Z,28.41
2022-09-01T12:29:35.415Z,28.25
2022-09-01T12:30:39.598Z,27.54
2022-09-01T12:31:36.539Z,27.75
2022-09-01T12:32:33.578Z,28.21
2022-09-01T12:33:31.584Z,27.88
2022-09-01T12:34:28.226Z,28.05
2022-09-01T12:35:27.231Z,28.16
2022-09-01T12:36:28.688Z,28.25
2022-09-01T12:37:27.463Z,28.17
2022-09-01T12:38:25.832Z,28.40
2022-09-01T12:39:24.545Z,27.97
2022-09-01T12:40:25.215Z,28.00
2022-09-01T12:41:28.959Z,28.09
2022-09-01T12:42:40.942Z,27.69
2022-09-01T12:43:42.603Z,27.96
2022-09-01T12:44:39.552Z,27.96
2022-09-01T12:45:43.168Z,27.85
2022-09-01T12:46:46.639Z,28.17
2022-09-01T12:47:48.450Z,28.09
2022-09-01T12:48:46.661Z,28.20
2022-09-01T12:49:50.969Z,26.79
2022-09-01T12:50:50.851Z,27.59
2022-09-01T12:51:48.685Z,27.92
2022-09-01T12:52:47.779Z,27.81
2022-09-01T12:53:53.295Z,27.93
2022-09-01T12:54:54.753Z,28.02
2022-09-01T12:56:01.523Z,28.32
2022-09-01T12:56:58.270Z,28.61
2022-09-01T12:57:59.170Z,28.69
2022-09-01T12:59:04.937Z,27.23
2022-09-01T13:00:11.533Z,28.27
2022-09-01T13:01:16.452Z,28.82
2022-09-01T13:04:12.177Z,28.87
2022-09-01T13:05:33.573Z,28.82
2022-09-01T13:06:33.459Z,28.60
2022-09-01T13:07:30.275Z,27.50
2022-09-01T13:08:30.987Z,28.10
2022-09-01T13:09:27.936Z,27.90
2022-09-01T13:10:28.557Z,28.04
2022-09-01T13:11:25.395Z,28.29
2022-09-01T13:12:22.727Z,27.78
2022-09-01T13:13:20.940Z,27.74
2022-09-01T13:14:19.044Z,27.15
2022-09-01T13:15:15.810Z,27.37
2022-09-01T13:16:13.958Z,27.41
2022-09-01T13:17:14.377Z,27.70
2022-09-01T13:18:12.147Z,27.54
2022-09-01T13:19:10.858Z,27.28
2022-09-01T13:20:08.748Z,27.11
2022-09-01T13:21:06.590Z,27.35
2022-09-01T13:22:03.234Z,27.10
2022-09-01T13:23:00.162Z,27.42
2022-09-01T13:23:56.996Z,26.97
2022-09-01T13:24:53.608Z,27.37
2022-09-01T13:25:50.475Z,27.23
2022-09-01T13:28:12.045Z,26.64
2022-09-01T13:29:08.778Z,27.32
2022-09-01T13:30:06.970Z,27.19
2022-09-01T13:32:24.071Z,26.38
2022-09-01T13:33:21.699Z,26.32
2022-09-01T13:34:22.055Z,26.33
2022-09-01T13:35:22.128Z,26.50
2022-09-01T13:37:36.423Z,26.22
2022-09-01T13:38:34.144Z,26.22
2022-09-01T13:39:31.263Z,26.24
2022-09-01T13:40:28.022Z,25.70
2022-09-01T13:41:26.180Z,26.12
2022-09-01T13:42:22.922Z,25.92
2022-09-01T13:43:28.469Z,25.70
2022-09-01T13:44:25.914Z,25.97
2022-09-01T13:45:25.452Z,25.67
2022-09-01T13:46:22.133Z,25.53
2022-09-01T13:47:34.254Z,25.59
2022-09-01T13:51:19.788Z,25.18
2022-09-01T13:52:16.494Z,24.77
2022-09-01T13:53:13.636Z,25.20
2022-09-01T13:54:10.343Z,25.57
2022-09-01T13:55:10.209Z,25.42
2022-09-01T13:56:06.943Z,25.50
2022-09-01T13:57:06.031Z,25.31
2022-09-01T13:58:02.737Z,25.45